sensor_id;sensor_type;location;lat;lon;timestamp;P1;durP1;ratioP1;P2;durP2;ratioP2
9481;SDS011;4779;48.062;11.672;2024-03-02T00:00:18;8.23;;;7.53;;
9481;SDS011;4779;48.062;11.672;2024-03-02T00:02:48;8.50;;;7.70;;
9481;SDS011;4779;48.062;11.672;2024-03-02T00:05:16;8.90;;;8.00;;
9481;SDS011;4779;48.062;11.672;2024-03-02T00:07:44;8.20;;;7.40;;
9481;SDS011;4779;48.062;11.672;2024-03-02T00:10:16;8.70;;;7.80;;
9481;SDS011;4779;48.062;11.672;2024-03-02T00:12:47;8.73;;;7.83;;
9481;SDS011;4779;48.062;11.672;2024-03-02T00:15:22;8.57;;;7.77;;
9481;SDS011;4779;48.062;11.672;2024-03-02T00:18:07;8.17;;;7.37;;
9481;SDS011;4779;48.062;11.672;2024-03-02T00:20:36;7.90;;;7.17;;
9481;SDS011;4779;48.062;11.672;2024-03-02T00:23:04;9.73;;;8.47;;
9481;SDS011;4779;48.062;11.672;2024-03-02T00:25:36;9.90;;;8.90;;
9481;SDS011;4779;48.062;11.672;2024-03-02T00:28:06;9.77;;;8.77;;
9481;SDS011;4779;48.062;11.672;2024-03-02T00:30:45;10.07;;;9.07;;
9481;SDS011;4779;48.062;11.672;2024-03-02T00:33:22;9.90;;;9.00;;
9481;SDS011;4779;48.062;11.672;2024-03-02T00:35:52;10.83;;;9.20;;
9481;SDS011;4779;48.062;11.672;2024-03-02T00:41:42;9.70;;;8.40;;
9481;SDS011;4779;48.062;11.672;2024-03-02T00:44:09;10.27;;;9.23;;
9481;SDS011;4779;48.062;11.672;2024-03-02T00:46:39;9.77;;;8.80;;
9481;SDS011;4779;48.062;11.672;2024-03-02T00:49:12;9.40;;;8.40;;
9481;SDS011;4779;48.062;11.672;2024-03-02T00:51:46;8.80;;;7.90;;
9481;SDS011;4779;48.062;11.672;2024-03-02T00:54:14;8.80;;;7.90;;
9481;SDS011;4779;48.062;11.672;2024-03-02T00:56:41;8.17;;;7.43;;
9481;SDS011;4779;48.062;11.672;2024-03-02T00:59:09;8.37;;;7.57;;
9481;SDS011;4779;48.062;11.672;2024-03-02T01:01:37;8.23;;;7.43;;
9481;SDS011;4779;48.062;11.672;2024-03-02T01:04:04;8.97;;;8.17;;
9481;SDS011;4779;48.062;11.672;2024-03-02T01:06:32;8.00;;;7.20;;
9481;SDS011;4779;48.062;11.672;2024-03-02T01:09:00;8.57;;;7.77;;
9481;SDS011;4779;48.062;11.672;2024-03-02T01:11:27;8.80;;;7.90;;
9481;SDS011;4779;48.062;11.672;2024-03-02T01:13:55;9.70;;;8.60;;
9481;SDS011;4779;48.062;11.672;2024-03-02T01:16:22;9.57;;;8.60;;
9481;SDS011;4779;48.062;11.672;2024-03-02T01:18:49;9.30;;;7.70;;
9481;SDS011;4779;48.062;11.672;2024-03-02T01:21:16;8.10;;;7.40;;
9481;SDS011;4779;48.062;11.672;2024-03-02T01:23:45;9.43;;;8.53;;
9481;SDS011;4779;48.062;11.672;2024-03-02T01:26:12;9.70;;;8.80;;
9481;SDS011;4779;48.062;11.672;2024-03-02T01:28:39;9.73;;;8.83;;
9481;SDS011;4779;48.062;11.672;2024-03-02T01:31:06;9.93;;;9.00;;
9481;SDS011;4779;48.062;11.672;2024-03-02T01:33:33;9.70;;;8.70;;
9481;SDS011;4779;48.062;11.672;2024-03-02T01:36:00;9.70;;;8.80;;
9481;SDS011;4779;48.062;11.672;2024-03-02T01:38:27;8.77;;;7.97;;
9481;SDS011;4779;48.062;11.672;2024-03-02T01:40:56;8.93;;;8.03;;
9481;SDS011;4779;48.062;11.672;2024-03-02T01:43:23;9.27;;;8.37;;
9481;SDS011;4779;48.062;11.672;2024-03-02T01:45:51;8.90;;;8.10;;
9481;SDS011;4779;48.062;11.672;2024-03-02T01:48:18;8.60;;;7.80;;
9481;SDS011;4779;48.062;11.672;2024-03-02T01:50:45;8.00;;;7.30;;
9481;SDS011;4779;48.062;11.672;2024-03-02T01:53:12;8.57;;;7.83;;
9481;SDS011;4779;48.062;11.672;2024-03-02T01:55:39;8.87;;;8.07;;
9481;SDS011;4779;48.062;11.672;2024-03-02T01:58:08;9.17;;;8.23;;
9481;SDS011;4779;48.062;11.672;2024-03-02T02:00:35;9.37;;;8.57;;
9481;SDS011;4779;48.062;11.672;2024-03-02T02:03:02;9.17;;;8.27;;
9481;SDS011;4779;48.062;11.672;2024-03-02T02:05:29;8.80;;;7.90;;
9481;SDS011;4779;48.062;11.672;2024-03-02T02:07:56;9.13;;;8.23;;
9481;SDS011;4779;48.062;11.672;2024-03-02T02:10:24;8.33;;;7.53;;
9481;SDS011;4779;48.062;11.672;2024-03-02T02:12:51;8.53;;;7.73;;
9481;SDS011;4779;48.062;11.672;2024-03-02T02:15:23;10.37;;;9.37;;
9481;SDS011;4779;48.062;11.672;2024-03-02T02:17:51;12.03;;;10.83;;
9481;SDS011;4779;48.062;11.672;2024-03-02T02:20:18;11.40;;;10.30;;
9481;SDS011;4779;48.062;11.672;2024-03-02T02:22:59;10.27;;;9.27;;
9481;SDS011;4779;48.062;11.672;2024-03-02T02:25:27;9.23;;;8.33;;
9481;SDS011;4779;48.062;11.672;2024-03-02T02:27:54;8.53;;;7.73;;
9481;SDS011;4779;48.062;11.672;2024-03-02T02:30:22;9.43;;;8.53;;
9481;SDS011;4779;48.062;11.672;2024-03-02T02:32:50;9.30;;;8.40;;
9481;SDS011;4779;48.062;11.672;2024-03-02T02:35:17;9.40;;;8.50;;
9481;SDS011;4779;48.062;11.672;2024-03-02T02:37:45;8.70;;;7.83;;
9481;SDS011;4779;48.062;11.672;2024-03-02T02:40:14;8.90;;;8.10;;
9481;SDS011;4779;48.062;11.672;2024-03-02T02:42:43;8.23;;;7.43;;
9481;SDS011;4779;48.062;11.672;2024-03-02T02:45:11;8.27;;;7.40;;
9481;SDS011;4779;48.062;11.672;2024-03-02T02:47:40;8.30;;;7.47;;
9481;SDS011;4779;48.062;11.672;2024-03-02T02:50:07;8.93;;;7.80;;
9481;SDS011;4779;48.062;11.672;2024-03-02T02:52:35;8.77;;;7.97;;
9481;SDS011;4779;48.062;11.672;2024-03-02T02:55:05;7.97;;;7.27;;
9481;SDS011;4779;48.062;11.672;2024-03-02T02:57:34;9.27;;;8.27;;
9481;SDS011;4779;48.062;11.672;2024-03-02T03:00:05;8.87;;;7.97;;
9481;SDS011;4779;48.062;11.672;2024-03-02T03:02:39;8.50;;;7.70;;
9481;SDS011;4779;48.062;11.672;2024-03-02T03:05:07;8.57;;;7.77;;
9481;SDS011;4779;48.062;11.672;2024-03-02T03:07:34;9.33;;;8.43;;
9481;SDS011;4779;48.062;11.672;2024-03-02T03:10:02;9.23;;;8.33;;
9481;SDS011;4779;48.062;11.672;2024-03-02T03:12:29;9.00;;;8.10;;
9481;SDS011;4779;48.062;11.672;2024-03-02T03:14:58;9.63;;;8.77;;
9481;SDS011;4779;48.062;11.672;2024-03-02T03:17:25;9.70;;;8.70;;
9481;SDS011;4779;48.062;11.672;2024-03-02T03:19:53;8.53;;;7.73;;
9481;SDS011;4779;48.062;11.672;2024-03-02T03:22:20;9.47;;;8.57;;
9481;SDS011;4779;48.062;11.672;2024-03-02T03:24:47;9.10;;;8.20;;
9481;SDS011;4779;48.062;11.672;2024-03-02T03:27:14;10.13;;;9.13;;
9481;SDS011;4779;48.062;11.672;2024-03-02T03:29:41;9.10;;;8.30;;
9481;SDS011;4779;48.062;11.672;2024-03-02T03:32:10;9.60;;;8.70;;
9481;SDS011;4779;48.062;11.672;2024-03-02T03:34:37;9.17;;;8.27;;
9481;SDS011;4779;48.062;11.672;2024-03-02T03:37:04;9.63;;;8.67;;
9481;SDS011;4779;48.062;11.672;2024-03-02T03:39:31;10.40;;;9.40;;
9481;SDS011;4779;48.062;11.672;2024-03-02T03:42:00;9.23;;;8.33;;
9481;SDS011;4779;48.062;11.672;2024-03-02T03:44:27;9.57;;;8.67;;
9481;SDS011;4779;48.062;11.672;2024-03-02T03:46:54;10.33;;;9.33;;
9481;SDS011;4779;48.062;11.672;2024-03-02T03:49:22;10.20;;;9.20;;
9481;SDS011;4779;48.062;11.672;2024-03-02T03:51:49;10.67;;;9.67;;
9481;SDS011;4779;48.062;11.672;2024-03-02T03:54:16;10.23;;;9.30;;
9481;SDS011;4779;48.062;11.672;2024-03-02T03:56:43;10.77;;;9.67;;
9481;SDS011;4779;48.062;11.672;2024-03-02T03:59:10;9.37;;;8.47;;
9481;SDS011;4779;48.062;11.672;2024-03-02T04:01:38;10.50;;;9.40;;
9481;SDS011;4779;48.062;11.672;2024-03-02T04:04:05;10.40;;;9.40;;
9481;SDS011;4779;48.062;11.672;2024-03-02T04:06:33;10.57;;;9.57;;
9481;SDS011;4779;48.062;11.672;2024-03-02T04:09:01;10.30;;;9.30;;
9481;SDS011;4779;48.062;11.672;2024-03-02T04:11:29;10.17;;;9.17;;
9481;SDS011;4779;48.062;11.672;2024-03-02T04:13:56;10.87;;;9.87;;
9481;SDS011;4779;48.062;11.672;2024-03-02T04:16:23;10.13;;;9.20;;
9481;SDS011;4779;48.062;11.672;2024-03-02T04:18:50;9.93;;;8.93;;
9481;SDS011;4779;48.062;11.672;2024-03-02T04:21:17;10.77;;;9.70;;
9481;SDS011;4779;48.062;11.672;2024-03-02T04:23:46;10.93;;;9.83;;
9481;SDS011;4779;48.062;11.672;2024-03-02T04:26:13;10.47;;;9.47;;
9481;SDS011;4779;48.062;11.672;2024-03-02T04:28:44;10.63;;;9.50;;
9481;SDS011;4779;48.062;11.672;2024-03-02T04:31:11;10.47;;;9.47;;
9481;SDS011;4779;48.062;11.672;2024-03-02T04:33:38;9.83;;;8.93;;
9481;SDS011;4779;48.062;11.672;2024-03-02T04:36:05;10.23;;;9.23;;
9481;SDS011;4779;48.062;11.672;2024-03-02T04:38:34;10.83;;;9.83;;
9481;SDS011;4779;48.062;11.672;2024-03-02T04:41:03;10.97;;;9.97;;
9481;SDS011;4779;48.062;11.672;2024-03-02T04:43:31;10.87;;;9.77;;
9481;SDS011;4779;48.062;11.672;2024-03-02T04:45:58;11.30;;;10.30;;
9481;SDS011;4779;48.062;11.672;2024-03-02T04:48:25;12.00;;;10.90;;
9481;SDS011;4779;48.062;11.672;2024-03-02T04:50:52;12.80;;;11.03;;
9481;SDS011;4779;48.062;11.672;2024-03-02T04:53:19;11.30;;;10.20;;
9481;SDS011;4779;48.062;11.672;2024-03-02T04:55:46;10.60;;;9.50;;
9481;SDS011;4779;48.062;11.672;2024-03-02T04:58:41;12.23;;;11.03;;
9481;SDS011;4779;48.062;11.672;2024-03-02T05:01:08;11.87;;;10.67;;
9481;SDS011;4779;48.062;11.672;2024-03-02T05:03:35;11.90;;;10.70;;
9481;SDS011;4779;48.062;11.672;2024-03-02T05:06:03;12.10;;;10.90;;
9481;SDS011;4779;48.062;11.672;2024-03-02T05:08:30;12.17;;;10.97;;
9481;SDS011;4779;48.062;11.672;2024-03-02T05:10:57;11.43;;;10.43;;
9481;SDS011;4779;48.062;11.672;2024-03-02T05:13:45;11.50;;;10.30;;
9481;SDS011;4779;48.062;11.672;2024-03-02T05:16:11;11.50;;;10.40;;
9481;SDS011;4779;48.062;11.672;2024-03-02T05:18:38;12.33;;;11.13;;
9481;SDS011;4779;48.062;11.672;2024-03-02T05:21:06;12.53;;;11.23;;
9481;SDS011;4779;48.062;11.672;2024-03-02T05:23:33;12.00;;;10.70;;
9481;SDS011;4779;48.062;11.672;2024-03-02T05:26:00;11.93;;;10.73;;
9481;SDS011;4779;48.062;11.672;2024-03-02T05:28:27;10.93;;;9.83;;
9481;SDS011;4779;48.062;11.672;2024-03-02T05:30:55;11.60;;;10.50;;
9481;SDS011;4779;48.062;11.672;2024-03-02T05:33:22;12.57;;;11.27;;
9481;SDS011;4779;48.062;11.672;2024-03-02T05:35:49;13.83;;;12.57;;
9481;SDS011;4779;48.062;11.672;2024-03-02T05:38:16;13.50;;;12.30;;
9481;SDS011;4779;48.062;11.672;2024-03-02T05:40:43;12.87;;;11.67;;
9481;SDS011;4779;48.062;11.672;2024-03-02T05:43:10;12.17;;;11.03;;
9481;SDS011;4779;48.062;11.672;2024-03-02T05:45:37;12.43;;;11.23;;
9481;SDS011;4779;48.062;11.672;2024-03-02T05:48:07;13.70;;;12.40;;
9481;SDS011;4779;48.062;11.672;2024-03-02T05:50:34;13.83;;;12.53;;
9481;SDS011;4779;48.062;11.672;2024-03-02T05:53:01;11.60;;;10.47;;
9481;SDS011;4779;48.062;11.672;2024-03-02T05:55:28;12.30;;;11.10;;
9481;SDS011;4779;48.062;11.672;2024-03-02T05:57:56;12.83;;;11.40;;
9481;SDS011;4779;48.062;11.672;2024-03-02T06:00:40;12.50;;;11.30;;
9481;SDS011;4779;48.062;11.672;2024-03-02T06:03:09;12.57;;;11.37;;
9481;SDS011;4779;48.062;11.672;2024-03-02T06:05:36;12.20;;;11.00;;
9481;SDS011;4779;48.062;11.672;2024-03-02T06:08:03;12.77;;;11.57;;
9481;SDS011;4779;48.062;11.672;2024-03-02T06:10:31;15.63;;;14.13;;
9481;SDS011;4779;48.062;11.672;2024-03-02T06:12:58;13.57;;;12.27;;
9481;SDS011;4779;48.062;11.672;2024-03-02T06:15:25;15.40;;;13.77;;
9481;SDS011;4779;48.062;11.672;2024-03-02T06:17:52;14.03;;;12.70;;
9481;SDS011;4779;48.062;11.672;2024-03-02T06:20:20;14.77;;;13.27;;
9481;SDS011;4779;48.062;11.672;2024-03-02T06:22:47;15.47;;;13.87;;
9481;SDS011;4779;48.062;11.672;2024-03-02T06:25:14;14.40;;;13.00;;
9481;SDS011;4779;48.062;11.672;2024-03-02T06:27:41;14.63;;;13.13;;
9481;SDS011;4779;48.062;11.672;2024-03-02T06:30:09;16.53;;;14.87;;
9481;SDS011;4779;48.062;11.672;2024-03-02T06:32:37;16.10;;;14.40;;
9481;SDS011;4779;48.062;11.672;2024-03-02T06:35:04;15.97;;;14.33;;
9481;SDS011;4779;48.062;11.672;2024-03-02T06:37:36;15.00;;;13.40;;
9481;SDS011;4779;48.062;11.672;2024-03-02T06:40:05;15.03;;;13.57;;
9481;SDS011;4779;48.062;11.672;2024-03-02T06:42:33;15.77;;;13.97;;
9481;SDS011;4779;48.062;11.672;2024-03-02T06:45:00;14.83;;;13.33;;
9481;SDS011;4779;48.062;11.672;2024-03-02T06:47:27;15.87;;;14.23;;
9481;SDS011;4779;48.062;11.672;2024-03-02T06:49:54;16.17;;;14.33;;
9481;SDS011;4779;48.062;11.672;2024-03-02T06:52:22;15.67;;;14.07;;
9481;SDS011;4779;48.062;11.672;2024-03-02T06:54:51;15.93;;;14.20;;
9481;SDS011;4779;48.062;11.672;2024-03-02T06:57:18;16.13;;;14.47;;
9481;SDS011;4779;48.062;11.672;2024-03-02T06:59:46;16.30;;;14.50;;
9481;SDS011;4779;48.062;11.672;2024-03-02T07:02:15;17.63;;;15.83;;
9481;SDS011;4779;48.062;11.672;2024-03-02T07:04:42;15.30;;;13.70;;
9481;SDS011;4779;48.062;11.672;2024-03-02T07:07:13;16.80;;;15.20;;
9481;SDS011;4779;48.062;11.672;2024-03-02T07:09:40;16.17;;;14.57;;
9481;SDS011;4779;48.062;11.672;2024-03-02T07:12:08;14.30;;;12.80;;
9481;SDS011;4779;48.062;11.672;2024-03-02T07:14:35;15.33;;;13.73;;
9481;SDS011;4779;48.062;11.672;2024-03-02T07:17:16;14.20;;;12.80;;
9481;SDS011;4779;48.062;11.672;2024-03-02T07:19:43;14.03;;;12.63;;
9481;SDS011;4779;48.062;11.672;2024-03-02T07:22:10;15.37;;;13.70;;
9481;SDS011;4779;48.062;11.672;2024-03-02T07:24:40;16.27;;;14.57;;
9481;SDS011;4779;48.062;11.672;2024-03-02T07:27:09;17.37;;;15.20;;
9481;SDS011;4779;48.062;11.672;2024-03-02T07:29:37;17.70;;;15.10;;
9481;SDS011;4779;48.062;11.672;2024-03-02T07:32:04;15.80;;;14.10;;
9481;SDS011;4779;48.062;11.672;2024-03-02T07:34:35;16.87;;;15.07;;
9481;SDS011;4779;48.062;11.672;2024-03-02T07:37:03;17.17;;;15.37;;
9481;SDS011;4779;48.062;11.672;2024-03-02T07:39:31;15.97;;;14.30;;
9481;SDS011;4779;48.062;11.672;2024-03-02T07:41:58;16.13;;;13.90;;
9481;SDS011;4779;48.062;11.672;2024-03-02T07:44:27;15.87;;;14.27;;
9481;SDS011;4779;48.062;11.672;2024-03-02T07:46:54;15.97;;;14.27;;
9481;SDS011;4779;48.062;11.672;2024-03-02T07:49:21;15.23;;;13.70;;
9481;SDS011;4779;48.062;11.672;2024-03-02T07:51:48;15.80;;;14.10;;
9481;SDS011;4779;48.062;11.672;2024-03-02T07:54:15;15.97;;;14.27;;
9481;SDS011;4779;48.062;11.672;2024-03-02T07:56:42;14.27;;;12.80;;
9481;SDS011;4779;48.062;11.672;2024-03-02T07:59:11;13.43;;;12.03;;
9481;SDS011;4779;48.062;11.672;2024-03-02T08:01:39;14.97;;;13.47;;
9481;SDS011;4779;48.062;11.672;2024-03-02T08:04:06;14.00;;;12.60;;
9481;SDS011;4779;48.062;11.672;2024-03-02T08:06:33;15.47;;;13.87;;
9481;SDS011;4779;48.062;11.672;2024-03-02T08:09:01;16.93;;;14.70;;
9481;SDS011;4779;48.062;11.672;2024-03-02T08:11:29;16.17;;;14.47;;
9481;SDS011;4779;48.062;11.672;2024-03-02T08:13:57;17.17;;;14.93;;
9481;SDS011;4779;48.062;11.672;2024-03-02T08:16:24;15.93;;;14.20;;
9481;SDS011;4779;48.062;11.672;2024-03-02T08:18:52;15.20;;;13.60;;
9481;SDS011;4779;48.062;11.672;2024-03-02T08:21:22;14.63;;;13.03;;
9481;SDS011;4779;48.062;11.672;2024-03-02T08:23:50;14.00;;;12.53;;
9481;SDS011;4779;48.062;11.672;2024-03-02T08:26:17;14.57;;;12.93;;
9481;SDS011;4779;48.062;11.672;2024-03-02T08:28:44;13.53;;;12.13;;
9481;SDS011;4779;48.062;11.672;2024-03-02T08:31:11;15.67;;;14.07;;
9481;SDS011;4779;48.062;11.672;2024-03-02T08:33:38;14.70;;;13.10;;
9481;SDS011;4779;48.062;11.672;2024-03-02T08:36:07;14.87;;;13.37;;
9481;SDS011;4779;48.062;11.672;2024-03-02T08:38:35;13.17;;;11.83;;
9481;SDS011;4779;48.062;11.672;2024-03-02T08:41:02;14.10;;;12.60;;
9481;SDS011;4779;48.062;11.672;2024-03-02T08:43:29;13.20;;;11.50;;
9481;SDS011;4779;48.062;11.672;2024-03-02T08:45:57;11.40;;;10.20;;
9481;SDS011;4779;48.062;11.672;2024-03-02T08:48:24;12.13;;;10.83;;
9481;SDS011;4779;48.062;11.672;2024-03-02T08:50:51;11.97;;;10.77;;
9481;SDS011;4779;48.062;11.672;2024-03-02T08:53:19;11.43;;;10.23;;
9481;SDS011;4779;48.062;11.672;2024-03-02T08:55:46;11.90;;;10.57;;
9481;SDS011;4779;48.062;11.672;2024-03-02T08:58:13;10.90;;;9.80;;
9481;SDS011;4779;48.062;11.672;2024-03-02T09:00:41;10.40;;;9.30;;
9481;SDS011;4779;48.062;11.672;2024-03-02T09:03:08;10.43;;;9.33;;
9481;SDS011;4779;48.062;11.672;2024-03-02T09:05:35;10.60;;;9.50;;
9481;SDS011;4779;48.062;11.672;2024-03-02T09:08:02;10.37;;;8.97;;
9481;SDS011;4779;48.062;11.672;2024-03-02T09:10:31;9.90;;;8.90;;
9481;SDS011;4779;48.062;11.672;2024-03-02T09:12:59;8.60;;;7.80;;
9481;SDS011;4779;48.062;11.672;2024-03-02T09:15:26;8.17;;;7.37;;
9481;SDS011;4779;48.062;11.672;2024-03-02T09:17:53;7.77;;;7.03;;
9481;SDS011;4779;48.062;11.672;2024-03-02T09:20:20;7.23;;;6.53;;
9481;SDS011;4779;48.062;11.672;2024-03-02T09:22:48;6.43;;;5.83;;
9481;SDS011;4779;48.062;11.672;2024-03-02T09:25:15;6.90;;;6.20;;
9481;SDS011;4779;48.062;11.672;2024-03-02T09:27:43;6.83;;;6.00;;
9481;SDS011;4779;48.062;11.672;2024-03-02T09:30:10;6.90;;;5.90;;
9481;SDS011;4779;48.062;11.672;2024-03-02T09:32:38;7.07;;;6.37;;
9481;SDS011;4779;48.062;11.672;2024-03-02T09:35:06;7.23;;;6.37;;
9481;SDS011;4779;48.062;11.672;2024-03-02T09:37:34;7.10;;;6.40;;
9481;SDS011;4779;48.062;11.672;2024-03-02T09:40:01;7.33;;;6.50;;
9481;SDS011;4779;48.062;11.672;2024-03-02T09:42:29;6.83;;;6.13;;
9481;SDS011;4779;48.062;11.672;2024-03-02T09:44:58;7.13;;;6.43;;
9481;SDS011;4779;48.062;11.672;2024-03-02T09:47:26;10.63;;;6.80;;
9481;SDS011;4779;48.062;11.672;2024-03-02T09:49:53;8.07;;;6.30;;
9481;SDS011;4779;48.062;11.672;2024-03-02T09:52:20;7.28;;;6.00;;
9481;SDS011;4779;48.062;11.672;2024-03-02T09:54:48;7.50;;;6.88;;
9481;SDS011;4779;48.062;11.672;2024-03-02T09:57:15;8.70;;;7.88;;
9481;SDS011;4779;48.062;11.672;2024-03-02T09:59:43;8.07;;;7.25;;
9481;SDS011;4779;48.062;11.672;2024-03-02T10:02:11;9.35;;;8.35;;
9481;SDS011;4779;48.062;11.672;2024-03-02T10:04:38;9.30;;;8.38;;
9481;SDS011;4779;48.062;11.672;2024-03-02T10:07:09;9.88;;;8.88;;
9481;SDS011;4779;48.062;11.672;2024-03-02T10:09:37;8.75;;;7.85;;
9481;SDS011;4779;48.062;11.672;2024-03-02T10:12:05;8.95;;;8.05;;
9481;SDS011;4779;48.062;11.672;2024-03-02T10:14:33;9.60;;;8.57;;
9481;SDS011;4779;48.062;11.672;2024-03-02T10:17:04;9.25;;;7.90;;
9481;SDS011;4779;48.062;11.672;2024-03-02T10:19:34;8.93;;;7.95;;
9481;SDS011;4779;48.062;11.672;2024-03-02T10:22:02;9.60;;;7.72;;
9481;SDS011;4779;48.062;11.672;2024-03-02T10:24:40;10.80;;;8.02;;
9481;SDS011;4779;48.062;11.672;2024-03-02T10:27:09;11.50;;;9.30;;
9481;SDS011;4779;48.062;11.672;2024-03-02T10:29:41;37.03;;;17.83;;
9481;SDS011;4779;48.062;11.672;2024-03-02T10:32:09;21.58;;;14.02;;
9481;SDS011;4779;48.062;11.672;2024-03-02T10:34:39;15.48;;;10.13;;
9481;SDS011;4779;48.062;11.672;2024-03-02T10:37:07;9.25;;;7.85;;
9481;SDS011;4779;48.062;11.672;2024-03-02T10:39:34;8.52;;;7.72;;
9481;SDS011;4779;48.062;11.672;2024-03-02T10:42:02;9.35;;;8.38;;
9481;SDS011;4779;48.062;11.672;2024-03-02T10:44:30;9.50;;;7.75;;
9481;SDS011;4779;48.062;11.672;2024-03-02T10:46:59;13.30;;;8.57;;
9481;SDS011;4779;48.062;11.672;2024-03-02T10:49:28;9.80;;;7.00;;
9481;SDS011;4779;48.062;11.672;2024-03-02T10:51:58;8.02;;;7.22;;
9481;SDS011;4779;48.062;11.672;2024-03-02T10:54:25;9.10;;;7.65;;
9481;SDS011;4779;48.062;11.672;2024-03-02T10:56:55;9.35;;;7.68;;
9481;SDS011;4779;48.062;11.672;2024-03-02T10:59:27;8.00;;;7.20;;
9481;SDS011;4779;48.062;11.672;2024-03-02T11:01:59;9.00;;;7.75;;
9481;SDS011;4779;48.062;11.672;2024-03-02T11:04:27;9.45;;;7.78;;
9481;SDS011;4779;48.062;11.672;2024-03-02T11:06:58;8.82;;;7.60;;
9481;SDS011;4779;48.062;11.672;2024-03-02T11:09:33;7.15;;;6.25;;
9481;SDS011;4779;48.062;11.672;2024-03-02T11:12:02;7.10;;;6.40;;
9481;SDS011;4779;48.062;11.672;2024-03-02T11:14:45;6.30;;;5.13;;
9481;SDS011;4779;48.062;11.672;2024-03-02T11:17:13;7.15;;;6.43;;
9481;SDS011;4779;48.062;11.672;2024-03-02T11:19:41;7.97;;;6.38;;
9481;SDS011;4779;48.062;11.672;2024-03-02T11:22:11;7.80;;;6.38;;
9481;SDS011;4779;48.062;11.672;2024-03-02T11:24:40;9.07;;;7.18;;
9481;SDS011;4779;48.062;11.672;2024-03-02T11:27:14;8.80;;;6.30;;
9481;SDS011;4779;48.062;11.672;2024-03-02T11:30:01;8.30;;;6.60;;
9481;SDS011;4779;48.062;11.672;2024-03-02T11:32:28;7.75;;;6.53;;
9481;SDS011;4779;48.062;11.672;2024-03-02T11:34:55;9.80;;;6.35;;
9481;SDS011;4779;48.062;11.672;2024-03-02T11:37:24;8.85;;;6.53;;
9481;SDS011;4779;48.062;11.672;2024-03-02T11:39:51;7.43;;;6.60;;
9481;SDS011;4779;48.062;11.672;2024-03-02T11:42:18;8.63;;;6.80;;
9481;SDS011;4779;48.062;11.672;2024-03-02T11:44:46;8.02;;;6.30;;
9481;SDS011;4779;48.062;11.672;2024-03-02T11:47:15;7.15;;;6.28;;
9481;SDS011;4779;48.062;11.672;2024-03-02T11:49:43;6.40;;;5.60;;
9481;SDS011;4779;48.062;11.672;2024-03-02T11:52:11;7.57;;;5.75;;
9481;SDS011;4779;48.062;11.672;2024-03-02T11:54:42;5.60;;;5.03;;
9481;SDS011;4779;48.062;11.672;2024-03-02T11:57:13;6.78;;;5.45;;
9481;SDS011;4779;48.062;11.672;2024-03-02T11:59:42;7.78;;;6.63;;
9481;SDS011;4779;48.062;11.672;2024-03-02T12:02:14;6.65;;;5.95;;
9481;SDS011;4779;48.062;11.672;2024-03-02T12:04:42;7.20;;;6.45;;
9481;SDS011;4779;48.062;11.672;2024-03-02T12:07:10;5.68;;;5.13;;
9481;SDS011;4779;48.062;11.672;2024-03-02T12:09:38;5.82;;;5.18;;
9481;SDS011;4779;48.062;11.672;2024-03-02T12:12:07;6.75;;;5.10;;
9481;SDS011;4779;48.062;11.672;2024-03-02T12:14:36;6.18;;;5.32;;
9481;SDS011;4779;48.062;11.672;2024-03-02T12:17:06;5.75;;;4.75;;
9481;SDS011;4779;48.062;11.672;2024-03-02T12:19:33;6.13;;;4.70;;
9481;SDS011;4779;48.062;11.672;2024-03-02T12:22:00;6.05;;;4.90;;
9481;SDS011;4779;48.062;11.672;2024-03-02T12:24:28;7.68;;;5.35;;
9481;SDS011;4779;48.062;11.672;2024-03-02T12:26:55;5.70;;;5.03;;
9481;SDS011;4779;48.062;11.672;2024-03-02T12:29:24;5.75;;;5.15;;
9481;SDS011;4779;48.062;11.672;2024-03-02T12:31:52;6.20;;;5.60;;
9481;SDS011;4779;48.062;11.672;2024-03-02T12:34:20;6.00;;;5.38;;
9481;SDS011;4779;48.062;11.672;2024-03-02T12:36:48;6.85;;;6.05;;
9481;SDS011;4779;48.062;11.672;2024-03-02T12:39:18;7.10;;;5.93;;
9481;SDS011;4779;48.062;11.672;2024-03-02T12:41:45;6.93;;;6.22;;
9481;SDS011;4779;48.062;11.672;2024-03-02T12:44:15;7.35;;;6.13;;
9481;SDS011;4779;48.062;11.672;2024-03-02T12:46:45;7.10;;;5.68;;
9481;SDS011;4779;48.062;11.672;2024-03-02T12:49:13;5.43;;;4.85;;
9481;SDS011;4779;48.062;11.672;2024-03-02T12:51:42;6.18;;;5.55;;
9481;SDS011;4779;48.062;11.672;2024-03-02T12:54:12;7.10;;;5.75;;
9481;SDS011;4779;48.062;11.672;2024-03-02T12:56:40;6.30;;;5.47;;
9481;SDS011;4779;48.062;11.672;2024-03-02T12:59:16;7.90;;;5.70;;
9481;SDS011;4779;48.062;11.672;2024-03-02T13:01:51;6.47;;;5.70;;
9481;SDS011;4779;48.062;11.672;2024-03-02T13:04:21;6.85;;;6.10;;
9481;SDS011;4779;48.062;11.672;2024-03-02T13:06:49;7.47;;;6.78;;
9481;SDS011;4779;48.062;11.672;2024-03-02T13:09:17;7.65;;;6.85;;
9481;SDS011;4779;48.062;11.672;2024-03-02T13:11:44;6.78;;;6.18;;
9481;SDS011;4779;48.062;11.672;2024-03-02T13:14:11;7.82;;;6.88;;
9481;SDS011;4779;48.062;11.672;2024-03-02T13:16:39;8.27;;;6.50;;
9481;SDS011;4779;48.062;11.672;2024-03-02T13:19:08;7.10;;;6.35;;
9481;SDS011;4779;48.062;11.672;2024-03-02T13:21:35;7.05;;;6.15;;
9481;SDS011;4779;48.062;11.672;2024-03-02T13:24:03;7.07;;;5.65;;
9481;SDS011;4779;48.062;11.672;2024-03-02T13:26:30;6.57;;;5.80;;
9481;SDS011;4779;48.062;11.672;2024-03-02T13:28:57;6.35;;;5.68;;
9481;SDS011;4779;48.062;11.672;2024-03-02T13:31:24;7.50;;;6.53;;
9481;SDS011;4779;48.062;11.672;2024-03-02T13:33:52;7.43;;;6.47;;
9481;SDS011;4779;48.062;11.672;2024-03-02T13:36:20;9.45;;;7.07;;
9481;SDS011;4779;48.062;11.672;2024-03-02T13:38:47;9.88;;;8.13;;
9481;SDS011;4779;48.062;11.672;2024-03-02T13:41:14;10.15;;;9.05;;
9481;SDS011;4779;48.062;11.672;2024-03-02T13:43:41;9.63;;;8.63;;
9481;SDS011;4779;48.062;11.672;2024-03-02T13:46:10;9.75;;;8.75;;
9481;SDS011;4779;48.062;11.672;2024-03-02T13:48:37;11.98;;;9.50;;
9481;SDS011;4779;48.062;11.672;2024-03-02T13:51:04;9.80;;;8.73;;
9481;SDS011;4779;48.062;11.672;2024-03-02T13:53:32;9.13;;;7.97;;
9481;SDS011;4779;48.062;11.672;2024-03-02T13:56:00;9.77;;;7.70;;
9481;SDS011;4779;48.062;11.672;2024-03-02T13:58:31;8.02;;;6.95;;
9481;SDS011;4779;48.062;11.672;2024-03-02T14:00:58;8.10;;;7.25;;
9481;SDS011;4779;48.062;11.672;2024-03-02T14:03:26;9.60;;;6.90;;
9481;SDS011;4779;48.062;11.672;2024-03-02T14:05:53;8.20;;;6.72;;
9481;SDS011;4779;48.062;11.672;2024-03-02T14:08:20;7.75;;;6.20;;
9481;SDS011;4779;48.062;11.672;2024-03-02T14:10:49;6.32;;;4.90;;
9481;SDS011;4779;48.062;11.672;2024-03-02T14:13:16;6.93;;;5.30;;
9481;SDS011;4779;48.062;11.672;2024-03-02T14:15:44;8.02;;;6.22;;
9481;SDS011;4779;48.062;11.672;2024-03-02T14:18:11;8.23;;;6.13;;
9481;SDS011;4779;48.062;11.672;2024-03-02T14:20:38;6.75;;;5.65;;
9481;SDS011;4779;48.062;11.672;2024-03-02T14:23:07;8.05;;;5.63;;
9481;SDS011;4779;48.062;11.672;2024-03-02T14:25:35;6.07;;;5.20;;
9481;SDS011;4779;48.062;11.672;2024-03-02T14:28:04;6.20;;;5.60;;
9481;SDS011;4779;48.062;11.672;2024-03-02T14:30:31;8.52;;;6.30;;
9481;SDS011;4779;48.062;11.672;2024-03-02T14:32:59;6.88;;;6.10;;
9481;SDS011;4779;48.062;11.672;2024-03-02T14:35:26;6.40;;;5.70;;
9481;SDS011;4779;48.062;11.672;2024-03-02T14:37:53;7.70;;;6.90;;
9481;SDS011;4779;48.062;11.672;2024-03-02T14:40:22;7.95;;;6.90;;
9481;SDS011;4779;48.062;11.672;2024-03-02T14:42:52;8.50;;;7.60;;
9481;SDS011;4779;48.062;11.672;2024-03-02T14:45:20;8.68;;;7.78;;
9481;SDS011;4779;48.062;11.672;2024-03-02T14:47:47;9.32;;;7.55;;
9481;SDS011;4779;48.062;11.672;2024-03-02T14:50:15;10.18;;;7.57;;
9481;SDS011;4779;48.062;11.672;2024-03-02T14:52:43;8.73;;;7.82;;
9481;SDS011;4779;48.062;11.672;2024-03-02T14:55:11;8.55;;;7.65;;
9481;SDS011;4779;48.062;11.672;2024-03-02T14:57:38;10.80;;;8.48;;
9481;SDS011;4779;48.062;11.672;2024-03-02T15:00:06;9.35;;;8.45;;
9481;SDS011;4779;48.062;11.672;2024-03-02T15:02:37;9.18;;;8.05;;